메인 페이지
METAR-TAF:

METAR-TAF

공항 :

Knock, 아일랜드

위도: 53-54-37N, 경도: 008-49-05W, 고도: 203m

현재 날씨관측

예보는 8 시간 15분 전, 18:00시(UTC)에 발표되었습니다.
북북서8kt
온도 12°C
습도 94%
기압 1021 hPa
시정 10km 이상
고도 1300ft 상공 구름 보통
고도 1800ft 상공 구름 많음
고도 8000ft 상공 구름 많음

METAR: EIKN 121800Z 34008KT 9999 SCT013 BKN018 BKN080 12/11 Q1021 BECMG BKN010

시각: 03:15 (02:15 UTC)

예보

예보는 3 시간 15분 전, 23:00시(UTC)에 발표되었습니다.
예보 대상 시간: 13일 00시부터 13일 24시까지 (UTC)
8kt
시정 10km 이상
고도 800ft 상공 구름 많음
확률 40% :
일시적
13일 00시부터 13일 08시까지 (UTC)
시정: 3000m
고도 400ft 상공 구름 많음
약한비
전환 중
13일 11시부터 13일 13시까지 (UTC)
고도 1800ft 상공 구름 많음

TAF: EIKN 122300Z 1300/1324 35008KT 9999 BKN008 PROB40 TEMPO 1300/1308 3000 -RA BKN004 BECMG 1311/1313 BKN018

4,000개 이상의 공항 관측 자료 및 예보 (METAR 및 TAF 보고).

지도상에서 검색 가능한 기상관측소가 노란 점과 빨간 점으로 표시되어 있습니다.

기상관측소 명을 보려면 표시 위로 마우스를 이동하세요.

날씨 관측과 예보를 보려면 클릭하세요.

지도 변경 : 확대하려면 엑스 표시가 있는 녹색 버튼, 축소하려면 빼기 표시가 있는 녹색 버튼, 다음 페이지의 지도를 보려면 녹색 화살표를 클릭하세요.


METAR-TAF: